TimeCST,TemperatureF,Dew PointF,Humidity,Sea Level PressureIn,VisibilityMPH,Wind Direction,Wind SpeedMPH,Gust SpeedMPH,PrecipitationIn,Events,Conditions,WindDirDegrees,DateUTC
12:00 AM,68.0,62.6,83,29.99,-9999.0,ENE,6.9,-,N/A,,Clear,60,2013-08-05 06:00:00
1:00 AM,69.8,60.8,73,29.97,-9999.0,East,3.5,-,N/A,,Clear,80,2013-08-05 07:00:00
2:00 AM,69.8,59.0,68,29.95,-9999.0,ESE,13.8,-,N/A,,Clear,110,2013-08-05 08:00:00
3:00 AM,69.8,59.0,68,29.96,-9999.0,ESE,10.4,-,N/A,,Clear,110,2013-08-05 09:00:00
4:00 AM,69.8,60.8,73,29.97,-9999.0,ESE,10.4,-,N/A,,Clear,120,2013-08-05 10:00:00
5:00 AM,68.0,60.8,78,30.00,-9999.0,NNE,6.9,-,N/A,,Clear,30,2013-08-05 11:00:00
6:00 AM,67,61,75,29.88,12,ENE,3.5,,,,Partly Cloudy,60,2013-08-05 12:00:00
6:00 AM,66.2,60.8,83,30.01,-9999.0,ENE,3.5,-,N/A,,Clear,60,2013-08-05 12:00:00
7:00 AM,69.8,62.6,78,30.04,-9999.0,East,6.9,-,N/A,,Clear,80,2013-08-05 13:00:00
8:00 AM,75.2,62.6,65,30.04,-9999.0,ESE,5.8,-,N/A,,Clear,120,2013-08-05 14:00:00
9:00 AM,80,62,45,29.85,12,East,6.9,,,,Scattered Clouds,100,2013-08-05 15:00:00
9:00 AM,80.6,62.6,54,30.04,-9999.0,East,6.9,-,N/A,,Clear,100,2013-08-05 15:00:00
10:00 AM,82.4,64.4,54,30.04,-9999.0,SW,5.8,-,N/A,,Clear,220,2013-08-05 16:00:00
11:00 AM,80.6,68.0,65,30.01,-9999.0,WSW,6.9,-,N/A,,Clear,250,2013-08-05 17:00:00
12:00 PM,80,67,57,29.82,12,West,9.2,,,,Scattered Clouds,270,2013-08-05 18:00:00
12:00 PM,80.6,68.0,65,29.99,6.2,West,9.2,-,N/A,,Mostly Cloudy,270,2013-08-05 18:00:00
1:00 PM,78.8,69.8,74,29.98,6.2,WSW,10.4,-,N/A,,Scattered Clouds,240,2013-08-05 19:00:00
2:00 PM,77.0,69.8,78,29.96,6.2,SW,10.4,-,N/A,,Mostly Cloudy,230,2013-08-05 20:00:00
3:00 PM,76,70,77,29.77,12,WSW,9.2,,,,Overcast,240,2013-08-05 21:00:00
3:00 PM,77.0,69.8,78,29.95,6.2,WSW,9.2,-,N/A,,Mostly Cloudy,240,2013-08-05 21:00:00
4:00 PM,75.2,69.8,83,29.95,6.2,West,11.5,-,N/A,,Mostly Cloudy,260,2013-08-05 22:00:00
5:00 PM,75.2,69.8,83,29.97,6.2,West,10.4,-,N/A,,Mostly Cloudy,260,2013-08-05 23:00:00
6:00 PM,73,69,85,29.82,12,WSW,9.2,,,,Overcast,250,2013-08-06 00:00:00
6:00 PM,73.4,69.8,88,29.98,6.2,WSW,9.2,-,N/A,,Mostly Cloudy,250,2013-08-06 00:00:00
7:00 PM,73.4,64.4,73,30.01,6.2,NE,6.9,-,N/A,,Scattered Clouds,40,2013-08-06 01:00:00
8:00 PM,71.6,68.0,88,30.03,6.2,North,6.9,-,N/A,,Mostly Cloudy,350,2013-08-06 02:00:00
9:00 PM,70,68,93,29.84,12,West,3.5,,,,Overcast,270,2013-08-06 03:00:00
9:00 PM,69.8,68.0,94,30.05,6.2,West,3.5,-,N/A,,Mostly Cloudy,270,2013-08-06 03:00:00
10:00 PM,69.8,68.0,94,30.05,-9999.0,NNE,4.6,-,N/A,,Clear,30,2013-08-06 04:00:00
11:00 PM,71.6,64.4,78,30.04,-9999.0,East,3.5,-,N/A,,Clear,90,2013-08-06 05:00:00